Time;durP1;ratioP1;P1;durP2;ratioP2;P2;SDS_P1;SDS_P2;PMS_P1;PMS_P2;Temp;Humidity;BMP_temperature;BMP_pressure;BME280_temperature;BME280_humidity;BME280_pressure;Samples;Min_cycle;Max_cycle;Signal;HPM_P1;HPM_P2
2023/07/09 00:00:13;;;;;;;;;15.00;10.80;;;;;26.75;57.24;100960.09;5119771;27;45360;-83
2023/07/09 00:02:39;;;;;;;;;11.00;11.00;;;;;26.59;57.90;100938.38;5119597;27;45167;-82
2023/07/09 00:05:07;;;;;;;;;10.25;10.00;;;;;26.66;57.49;100964.75;5120517;27;45556;-80
2023/07/09 00:07:33;;;;;;;;;10.40;10.40;;;;;26.67;58.09;100962.88;5119952;27;45347;-81
2023/07/09 00:09:59;;;;;;;;;13.75;11.75;;;;;26.58;58.07;100950.34;5120217;27;45400;-81
2023/07/09 00:12:25;;;;;;;;;8.75;8.75;;;;;26.58;58.18;100967.56;5119931;27;45168;-81
2023/07/09 00:14:51;;;;;;;;;7.75;7.75;;;;;26.56;58.45;100971.47;5119219;27;45387;-81
2023/07/09 00:17:30;;;;;;;;;13.25;11.75;;;;;26.35;59.00;100951.13;5119215;27;45370;-83
2023/07/09 00:19:56;;;;;;;;;12.50;11.50;;;;;26.38;59.39;100967.16;5117749;27;45342;-80
2023/07/09 00:22:22;;;;;;;;;9.50;9.50;;;;;26.10;59.51;100941.38;5118864;27;45540;-83
2023/07/09 00:24:50;;;;;;;;;9.50;9.25;;;;;26.11;59.74;100943.09;5118156;27;48200;-81
2023/07/09 00:27:21;;;;;;;;;11.75;11.50;;;;;26.17;59.83;100969.63;5120895;27;45352;-80
2023/07/09 00:29:46;;;;;;;;;14.00;10.20;;;;;26.09;60.21;100956.03;5119859;27;45383;-81
2023/07/09 00:32:15;;;;;;;;;12.00;10.00;;;;;26.20;59.23;100974.72;5119107;27;45429;-82
2023/07/09 00:34:41;;;;;;;;;11.25;11.25;;;;;26.23;59.49;100974.38;5119249;27;45907;-80
2023/07/09 00:37:12;;;;;;;;;12.25;12.25;;;;;26.20;60.34;100974.72;5118769;27;45184;-83
2023/07/09 00:39:37;;;;;;;;;12.25;12.25;;;;;26.23;60.16;100979.81;5120427;27;45420;-81
2023/07/09 00:42:03;;;;;;;;;10.75;9.50;;;;;26.11;60.65;100989.41;5119186;27;45450;-79
2023/07/09 00:44:31;;;;;;;;;11.00;11.00;;;;;26.06;60.82;100994.56;5118629;27;46110;-80
2023/07/09 00:47:02;;;;;;;;;11.00;11.00;;;;;25.94;61.15;100991.38;5118478;27;45276;-82
2023/07/09 00:49:41;;;;;;;;;11.50;10.00;;;;;25.85;61.54;100993.28;5118073;27;45380;-85
2023/07/09 00:52:39;;;;;;;;;11.25;11.25;;;;;25.85;61.55;101004.16;5118536;27;45188;-81
2023/07/09 00:55:10;;;;;;;;;11.75;11.75;;;;;25.66;61.90;100980.03;5115974;27;47253;-85
2023/07/09 00:57:38;;;;;;;;;9.50;8.25;;;;;25.77;62.08;100996.00;5118068;27;45248;-80
2023/07/09 01:00:11;;;;;;;;;9.75;9.75;;;;;25.76;61.85;101010.66;5118180;27;45382;-83
2023/07/09 01:02:43;;;;;;;;;10.25;10.25;;;;;25.59;62.43;100984.47;5116918;27;45496;-82
2023/07/09 01:05:10;;;;;;;;;9.00;9.00;;;;;25.63;62.59;100998.56;5116972;27;45499;-83
2023/07/09 01:07:36;;;;;;;;;11.00;11.00;;;;;25.57;63.23;101005.56;5116437;27;45200;-85
2023/07/09 01:10:02;;;;;;;;;15.00;13.00;;;;;25.48;62.62;100998.44;5117969;27;45205;-82
2023/07/09 01:12:30;;;;;;;;;9.75;9.25;;;;;25.55;63.13;101013.06;5116563;27;45719;-81
2023/07/09 01:14:58;;;;;;;;;12.00;12.00;;;;;25.55;62.90;101013.94;5117709;27;45564;-81
2023/07/09 01:17:27;;;;;;;;;12.75;11.25;;;;;25.43;63.38;101003.56;5117953;27;45332;-85
2023/07/09 01:19:54;;;;;;;;;12.50;10.00;;;;;25.23;63.41;100973.97;5117868;27;45337;-81
2023/07/09 01:22:21;;;;;;;;;11.00;10.00;;;;;25.32;64.00;100988.44;5118275;27;45221;-80
2023/07/09 01:25:09;;;;;;;;;13.75;12.25;;;;;25.27;63.77;100986.22;5117711;27;45341;-82
2023/07/09 01:27:38;;;;;;;;;12.00;11.00;;;;;25.39;63.79;101013.06;5117626;27;45396;-82
2023/07/09 01:30:11;;;;;;;;;10.00;8.50;;;;;25.29;64.02;101008.69;5118070;27;45352;-81
2023/07/09 01:32:38;;;;;;;;;10.25;9.25;;;;;25.28;63.73;101020.59;5117720;27;45272;-81
2023/07/09 01:35:06;;;;;;;;;12.75;10.75;;;;;25.18;64.03;101011.75;5116102;27;47126;-81
2023/07/09 01:37:34;;;;;;;;;13.25;10.00;;;;;25.14;64.13;101004.97;5117454;27;45515;-80
2023/07/09 01:40:00;;;;;;;;;8.25;8.00;;;;;25.04;64.29;100993.38;5117751;27;45387;-82
2023/07/09 01:42:28;;;;;;;;;11.25;10.75;;;;;25.25;64.13;101031.81;5116459;27;45548;-86
2023/07/09 01:44:54;;;;;;;;;10.75;8.75;;;;;25.13;64.57;101018.72;5116474;27;46179;-83
2023/07/09 01:47:20;;;;;;;;;10.75;10.00;;;;;25.04;64.52;101012.44;5117984;27;45398;-81
2023/07/09 01:49:46;;;;;;;;;14.50;12.00;;;;;25.12;64.46;101031.47;5118052;27;45554;-82
2023/07/09 01:52:14;;;;;;;;;9.25;9.25;;;;;25.02;64.64;101014.47;5117525;27;45324;-81
2023/07/09 01:54:39;;;;;;;;;10.50;8.75;;;;;25.05;64.50;101027.75;5117675;27;45475;-88
2023/07/09 01:57:22;;;;;;;;;14.25;10.25;;;;;24.91;65.40;101017.50;5117449;27;45311;-83
2023/07/09 01:59:49;;;;;;;;;11.75;10.00;;;;;25.02;64.78;101038.97;5117568;27;45316;-86
2023/07/09 02:02:20;;;;;;;;;13.50;11.50;;;;;24.88;64.46;101010.53;5118047;27;45981;-82
2023/07/09 02:04:51;;;;;;;;;12.00;12.00;;;;;25.03;64.94;101047.97;5117665;27;46122;-82
2023/07/09 02:07:17;;;;;;;;;13.50;11.25;;;;;24.92;65.29;101030.06;5117895;27;45250;-82
2023/07/09 02:09:42;;;;;;;;;11.50;10.75;;;;;24.73;65.50;101004.03;5119030;27;45373;-81
2023/07/09 02:12:09;;;;;;;;;13.75;13.00;;;;;24.84;65.48;101036.34;5122466;27;45331;-82
2023/07/09 02:14:35;;;;;;;;;12.50;12.00;;;;;24.85;65.10;101042.63;5124521;27;45377;-82
2023/07/09 02:17:00;;;;;;;;;13.00;11.75;;;;;24.84;65.98;101040.94;5122813;27;45408;-82
2023/07/09 02:19:26;;;;;;;;;12.75;10.00;;;;;24.73;65.48;101022.22;5122387;27;45314;-80
2023/07/09 02:21:51;;;;;;;;;11.25;11.25;;;;;24.82;65.18;101032.09;5121604;27;45301;-81
2023/07/09 02:24:16;;;;;;;;;11.25;10.00;;;;;24.79;65.27;101032.44;5120759;27;46037;-85
2023/07/09 02:26:42;;;;;;;;;12.00;11.75;;;;;24.77;65.28;101035.34;5120791;27;45332;-80
2023/07/09 02:29:07;;;;;;;;;13.00;12.50;;;;;24.77;65.55;101037.19;5120457;27;45426;-81
2023/07/09 02:31:33;;;;;;;;;13.00;11.00;;;;;24.76;64.93;101030.91;5122201;27;45438;-81
2023/07/09 02:33:59;;;;;;;;;14.00;12.50;;;;;24.64;65.18;101007.78;5119256;27;46916;-81
2023/07/09 02:36:25;;;;;;;;;11.50;11.50;;;;;24.77;65.46;101039.91;5121281;27;45356;-81
2023/07/09 02:38:51;;;;;;;;;12.25;12.25;;;;;24.67;65.58;101034.63;5120660;27;45227;-82
2023/07/09 02:41:16;;;;;;;;;13.00;12.00;;;;;24.51;65.64;101013.69;5120552;27;45589;-81
2023/07/09 02:43:42;;;;;;;;;12.00;12.00;;;;;24.59;65.85;101021.00;5120313;27;45906;-82
2023/07/09 02:46:07;;;;;;;;;15.25;12.25;;;;;24.58;66.61;101030.19;5120206;27;45751;-81
2023/07/09 02:48:32;;;;;;;;;11.00;10.75;;;;;24.61;66.98;101041.59;5120144;27;45302;-82
2023/07/09 02:50:58;;;;;;;;;15.00;14.00;;;;;24.54;66.98;101050.56;5119870;27;48510;-81
2023/07/09 02:53:23;;;;;;;;;18.00;14.50;;;;;24.55;67.31;101042.25;5120421;27;45290;-81
2023/07/09 02:55:49;;;;;;;;;15.00;15.00;;;;;24.39;66.84;101015.00;5120166;27;45395;-83
2023/07/09 02:58:14;;;;;;;;;17.50;15.00;;;;;24.49;67.66;101048.34;5120289;27;45237;-81
2023/07/09 03:00:39;;;;;;;;;14.25;13.75;;;;;24.41;68.16;101042.88;5120250;27;45589;-82
2023/07/09 03:03:05;;;;;;;;;15.75;12.75;;;;;24.44;67.55;101050.69;5119816;27;45960;-83
2023/07/09 03:05:31;;;;;;;;;15.50;14.25;;;;;24.41;68.06;101056.47;5120113;27;45889;-81
2023/07/09 03:07:56;;;;;;;;;14.75;14.75;;;;;24.25;68.03;101034.63;5120304;27;45479;-81
2023/07/09 03:10:21;;;;;;;;;19.33;16.67;;;;;24.18;68.57;101025.44;5120319;27;45564;-85
2023/07/09 03:12:47;;;;;;;;;16.00;15.67;;;;;24.33;68.62;101048.28;5120227;27;45361;-83
2023/07/09 03:15:14;;;;;;;;;16.25;15.25;;;;;24.25;69.00;101056.38;5120245;27;45448;-88
2023/07/09 03:17:39;;;;;;;;;15.50;12.00;;;;;24.10;69.08;101034.41;5118626;27;45524;-83
2023/07/09 03:20:05;;;;;;;;;14.25;13.00;;;;;24.21;69.57;101079.44;5119408;27;54968;-84
2023/07/09 03:22:30;;;;;;;;;14.50;11.50;;;;;23.98;69.77;101043.84;5119450;27;45271;-83
2023/07/09 03:24:56;;;;;;;;;12.75;12.00;;;;;24.05;69.74;101072.06;5119708;27;51160;-81
2023/07/09 03:27:21;;;;;;;;;14.75;14.75;;;;;23.99;69.98;101067.28;5119360;27;45299;-82
2023/07/09 03:29:46;;;;;;;;;11.50;11.25;;;;;23.98;69.73;101071.88;5117476;27;45613;-82
2023/07/09 03:32:12;;;;;;;;;15.75;13.25;;;;;23.67;70.79;101038.06;5118979;27;45401;-82
2023/07/09 03:34:37;;;;;;;;;14.33;11.00;;;;;23.85;70.21;101068.75;5119485;27;45229;-82
2023/07/09 03:37:03;;;;;;;;;14.50;13.25;;;;;23.90;70.40;101068.25;5119464;27;45293;-87
2023/07/09 03:39:28;;;;;;;;;14.00;13.00;;;;;23.58;69.99;101018.16;5119834;27;45344;-85
2023/07/09 03:41:53;;;;;;;;;16.00;11.33;;;;;23.41;70.53;100990.00;5119041;27;45241;-81
2023/07/09 03:44:19;;;;;;;;;13.50;11.00;;;;;23.78;70.21;101068.53;5119428;27;45305;-81
2023/07/09 03:46:44;;;;;;;;;12.00;12.00;;;;;23.71;69.83;101051.19;5118236;27;45278;-80
2023/07/09 03:49:09;;;;;;;;;10.25;10.25;;;;;23.45;69.66;101009.56;5119522;27;45364;-82
2023/07/09 03:51:35;;;;;;;;;12.75;12.75;;;;;23.45;69.10;101005.00;5119185;27;46218;-82
2023/07/09 03:54:00;;;;;;;;;11.33;11.33;;;;;23.65;69.78;101040.09;5119693;27;45488;-81
2023/07/09 03:56:25;;;;;;;;;14.33;12.67;;;;;23.69;69.68;101049.59;5119229;27;45380;-83
2023/07/09 03:58:51;;;;;;;;;12.75;12.75;;;;;23.84;69.36;101064.31;5119798;27;45462;-80
2023/07/09 04:01:16;;;;;;;;;14.00;13.33;;;;;23.91;68.66;101073.53;5117901;27;47974;-81
2023/07/09 04:03:41;;;;;;;;;10.25;10.00;;;;;23.91;68.71;101068.09;5120606;27;45336;-82
2023/07/09 04:06:07;;;;;;;;;11.00;10.00;;;;;23.92;67.84;101067.06;5122833;27;45425;-82
2023/07/09 04:08:32;;;;;;;;;8.00;8.00;;;;;23.78;68.22;101040.50;5121047;27;45704;-80
2023/07/09 04:11:02;;;;;;;;;10.75;9.00;;;;;23.84;67.77;101058.91;5122157;27;46035;-82
2023/07/09 04:13:28;;;;;;;;;9.00;9.00;;;;;23.93;68.00;101076.91;5121828;27;45234;-81
2023/07/09 04:15:55;;;;;;;;;13.00;9.50;;;;;23.91;68.53;101073.53;5119743;27;45237;-82
2023/07/09 04:18:20;;;;;;;;;15.25;9.50;;;;;23.88;68.04;101079.28;5120207;27;45576;-80
2023/07/09 04:20:50;;;;;;;;;10.00;10.00;;;;;23.86;67.89;101075.88;5120515;27;46196;-82
2023/07/09 04:23:16;;;;;;;;;11.25;11.00;;;;;23.92;67.29;101087.94;5119502;27;45435;-81
2023/07/09 04:25:41;;;;;;;;;11.25;11.25;;;;;23.92;67.37;101082.53;5118914;27;45285;-83
2023/07/09 04:28:07;;;;;;;;;12.00;10.50;;;;;23.95;67.13;101088.47;5118831;27;45662;-81
2023/07/09 04:30:32;;;;;;;;;11.25;11.25;;;;;23.98;66.67;101071.03;5117678;27;46071;-81
2023/07/09 04:32:58;;;;;;;;;11.00;11.00;;;;;24.00;66.30;101069.84;5117238;27;45357;-85
2023/07/09 04:35:23;;;;;;;;;10.00;9.25;;;;;24.08;65.80;101078.03;5117493;27;45257;-81
2023/07/09 04:37:49;;;;;;;;;11.00;9.75;;;;;24.09;66.04;101077.03;5119028;27;45648;-82
2023/07/09 04:40:18;;;;;;;;;10.75;9.00;;;;;23.99;65.62;101056.44;5118692;27;45940;-86
2023/07/09 04:42:43;;;;;;;;;14.00;9.50;;;;;24.15;65.76;101064.66;5117799;27;45690;-82
2023/07/09 04:45:11;;;;;;;;;11.00;11.00;;;;;24.19;65.11;101076.91;5119685;27;45458;-82
2023/07/09 04:47:37;;;;;;;;;11.25;9.75;;;;;24.28;64.72;101077.78;5123016;27;45467;-81
2023/07/09 04:50:03;;;;;;;;;13.00;12.00;;;;;24.15;63.96;101048.34;5119815;27;46327;-83
2023/07/09 04:52:30;;;;;;;;;10.00;10.00;;;;;24.34;64.80;101071.72;5121220;27;45340;-84
2023/07/09 04:54:56;;;;;;;;;8.25;8.25;;;;;24.35;63.76;101063.44;5121384;27;45435;-81
2023/07/09 04:57:21;;;;;;;;;12.25;12.25;;;;;24.39;63.62;101048.47;5119777;27;45534;-82
2023/07/09 04:59:47;;;;;;;;;12.50;12.50;;;;;24.46;63.38;101059.53;5119285;27;45434;-82
2023/07/09 05:02:12;;;;;;;;;14.50;12.25;;;;;24.38;63.24;101037.78;5118554;27;45329;-81
2023/07/09 05:04:38;;;;;;;;;13.33;13.33;;;;;24.47;62.80;101047.66;5118509;27;45465;-83
2023/07/09 05:07:04;;;;;;;;;13.00;11.75;;;;;24.55;62.47;101050.41;5118857;27;45514;-85
2023/07/09 05:09:29;;;;;;;;;11.75;11.25;;;;;24.47;62.63;101039.50;5118263;27;46523;-81
2023/07/09 05:11:54;;;;;;;;;12.00;10.00;;;;;24.48;61.88;101038.50;5116186;27;57204;-82
2023/07/09 05:14:20;;;;;;;;;9.75;9.75;;;;;24.59;62.16;101070.78;5118401;27;45320;-82
2023/07/09 05:16:45;;;;;;;;;13.25;11.75;;;;;24.46;62.24;101045.94;5118308;27;45356;-82
2023/07/09 05:19:11;;;;;;;;;13.00;12.75;;;;;24.56;61.97;101043.94;5116618;27;47898;-84
2023/07/09 05:21:36;;;;;;;;;8.00;8.00;;;;;24.47;61.60;101017.75;5116650;27;45328;-84
2023/07/09 05:24:01;;;;;;;;;13.00;11.75;;;;;24.77;60.96;101056.25;5118351;27;45557;-85
2023/07/09 05:26:27;;;;;;;;;10.50;9.50;;;;;24.79;61.23;101051.47;5118382;27;45585;-83
2023/07/09 05:28:52;;;;;;;;;9.50;9.50;;;;;24.83;60.64;101056.41;5117818;27;45500;-83
2023/07/09 05:31:18;;;;;;;;;10.00;10.00;;;;;24.89;59.63;101066.63;5116403;27;52378;-84
2023/07/09 05:33:43;;;;;;;;;8.25;8.25;;;;;24.80;58.82;101058.63;5118348;27;45458;-82
2023/07/09 05:36:15;;;;;;;;;7.00;7.00;;;;;24.70;57.84;101045.16;5118483;27;45582;-83
2023/07/09 05:38:41;;;;;;;;;8.50;8.00;;;;;24.86;57.66;101068.81;5117807;27;45355;-82
2023/07/09 05:41:07;;;;;;;;;8.25;6.50;;;;;24.84;57.66;101062.69;5118086;27;45227;-80
2023/07/09 05:43:33;;;;;;;;;10.00;8.00;;;;;24.96;57.59;101072.25;5117963;27;45428;-81
2023/07/09 05:46:00;;;;;;;;;7.50;7.00;;;;;25.09;57.02;101075.34;5118104;27;45586;-81
2023/07/09 05:48:26;;;;;;;;;7.25;7.25;;;;;25.07;56.93;101060.22;5118104;27;45768;-82
2023/07/09 05:50:53;;;;;;;;;11.25;7.75;;;;;25.11;56.15;101061.56;5119114;27;45321;-82
2023/07/09 05:53:19;;;;;;;;;7.75;7.00;;;;;25.27;56.23;101054.28;5118343;27;45353;-81
2023/07/09 05:55:44;;;;;;;;;10.25;9.75;;;;;25.28;55.96;101031.50;5117665;27;45316;-81
2023/07/09 05:58:09;;;;;;;;;7.75;6.50;;;;;25.37;55.74;101020.56;5116027;27;46046;-80
2023/07/09 06:00:37;;;;;;;;;7.75;7.75;;;;;25.58;55.62;101034.50;5117827;27;45365;-82
2023/07/09 06:03:07;;;;;;;;;8.00;8.00;;;;;25.77;54.85;101050.50;5117249;27;45314;-81
2023/07/09 06:05:33;;;;;;;;;8.00;8.00;;;;;26.00;54.28;101060.66;5117884;27;45365;-82
2023/07/09 06:07:59;;;;;;;;;8.75;8.00;;;;;26.07;54.29;101067.13;5116899;27;47091;-85
2023/07/09 06:10:24;;;;;;;;;10.50;10.50;;;;;26.11;53.80;101063.03;5121558;27;45423;-84
2023/07/09 06:12:50;;;;;;;;;7.75;7.75;;;;;26.10;53.68;101055.88;5129131;27;45301;-81
2023/07/09 06:15:15;;;;;;;;;10.25;10.25;;;;;26.12;53.41;101048.38;5129105;27;45624;-85
2023/07/09 06:17:41;;;;;;;;;8.50;8.50;;;;;26.24;53.49;101049.69;5122860;27;45506;-82
2023/07/09 06:20:08;;;;;;;;;7.75;6.50;;;;;26.28;53.36;101045.56;5122133;27;45270;-87
2023/07/09 06:22:33;;;;;;;;;6.75;6.75;;;;;26.20;52.82;101040.16;5118913;27;45225;-81
2023/07/09 06:24:59;;;;;;;;;9.25;7.75;;;;;26.09;53.01;101068.66;5117790;27;46322;-82
2023/07/09 06:27:24;;;;;;;;;6.00;6.00;;;;;26.06;53.15;101092.69;5118789;27;45274;-81
2023/07/09 06:29:49;;;;;;;;;6.50;5.00;;;;;26.04;52.95;101089.25;5118650;27;49902;-81
2023/07/09 06:32:15;;;;;;;;;5.00;5.00;;;;;25.94;52.98;101084.03;5118504;27;45160;-82
2023/07/09 06:34:40;;;;;;;;;8.00;6.50;;;;;25.97;53.17;101093.72;5120491;27;45693;-81
2023/07/09 06:37:06;;;;;;;;;7.00;7.00;;;;;25.88;53.14;101096.47;5117716;27;45284;-81
2023/07/09 06:39:31;;;;;;;;;8.00;6.00;;;;;25.99;53.08;101110.75;5117491;27;45987;-84
2023/07/09 06:41:56;;;;;;;;;6.25;6.25;;;;;25.90;53.13;101092.72;5115826;27;45419;-82
2023/07/09 06:44:22;;;;;;;;;8.00;6.00;;;;;26.08;53.08;101110.56;5117314;27;45261;-82
2023/07/09 06:46:48;;;;;;;;;9.00;7.50;;;;;26.01;52.60;101089.63;5116941;27;45415;-80
2023/07/09 06:49:13;;;;;;;;;9.00;7.75;;;;;26.30;52.01;101100.75;5115386;27;45543;-81
2023/07/09 06:51:39;;;;;;;;;9.50;6.50;;;;;26.37;51.95;101107.25;5117552;27;45424;-83
2023/07/09 06:54:05;;;;;;;;;10.00;8.75;;;;;26.38;52.03;101114.41;5117522;27;45639;-85
2023/07/09 06:56:31;;;;;;;;;6.50;5.00;;;;;26.32;52.02;101115.09;5118643;27;45459;-81
2023/07/09 06:58:56;;;;;;;;;7.00;7.00;;;;;26.31;51.71;101129.75;5116523;27;45418;-85
2023/07/09 07:01:22;;;;;;;;;8.00;7.75;;;;;26.20;52.08;101121.09;5117186;27;45226;-86
2023/07/09 07:03:47;;;;;;;;;6.00;6.00;;;;;26.17;51.93;101122.28;5118963;27;45318;-83
2023/07/09 07:06:13;;;;;;;;;7.00;5.50;;;;;26.23;52.10;101113.41;5120376;27;46071;-83
2023/07/09 07:08:38;;;;;;;;;5.00;5.00;;;;;26.29;51.63;101109.13;5120691;27;45321;-84
2023/07/09 07:11:05;;;;;;;;;4.75;4.75;;;;;26.50;51.73;101116.75;5120699;27;45222;-83
2023/07/09 07:13:36;;;;;;;;;7.25;6.75;;;;;26.58;51.53;101108.56;5120659;27;45301;-81
2023/07/09 07:16:04;;;;;;;;;5.50;5.50;;;;;26.66;51.16;101106.63;5118763;27;47002;-81
2023/07/09 07:18:30;;;;;;;;;6.40;5.00;;;;;26.73;51.28;101093.13;5120671;27;45376;-85
2023/07/09 07:20:55;;;;;;;;;6.50;5.00;;;;;26.75;50.65;101091.91;5120493;27;45341;-83
2023/07/09 07:23:21;;;;;;;;;8.50;6.00;;;;;26.95;50.49;101113.28;5120542;27;45305;-83
2023/07/09 07:25:47;;;;;;;;;7.75;6.00;;;;;26.91;50.76;101101.88;5120317;27;45507;-83
2023/07/09 07:28:13;;;;;;;;;6.40;6.40;;;;;27.05;50.79;101122.13;5120533;27;45298;-85
2023/07/09 07:30:38;;;;;;;;;6.50;6.50;;;;;27.02;51.03;101096.03;5120086;27;45351;-83
2023/07/09 07:33:03;;;;;;;;;9.00;9.00;;;;;27.11;50.87;101120.56;5120026;27;45552;-80
2023/07/09 07:35:29;;;;;;;;;6.25;6.25;;;;;26.96;50.56;101124.03;5119668;27;48074;-85
2023/07/09 07:37:54;;;;;;;;;9.25;9.25;;;;;26.90;51.14;101132.06;5122788;27;45292;-81
2023/07/09 07:40:19;;;;;;;;;7.25;7.25;;;;;26.71;51.82;101133.38;5121459;27;45865;-83
2023/07/09 07:42:46;;;;;;;;;7.50;7.50;;;;;26.55;52.29;101145.19;5122560;27;45872;-81
2023/07/09 07:45:11;;;;;;;;;8.50;6.75;;;;;26.32;52.76;101141.53;5120642;27;45492;-84
2023/07/09 07:47:37;;;;;;;;;9.50;9.50;;;;;26.03;52.92;101109.38;5120410;27;45386;-83
2023/07/09 07:50:03;;;;;;;;;9.25;9.25;;;;;26.14;53.67;101155.34;5120414;27;45237;-83
2023/07/09 07:52:28;;;;;;;;;8.75;8.75;;;;;25.79;53.99;101130.22;5118865;27;45323;-83
2023/07/09 07:54:54;;;;;;;;;10.00;10.00;;;;;25.96;54.03;101199.16;5119811;27;45328;-87
2023/07/09 07:57:21;;;;;;;;;9.75;9.75;;;;;25.67;54.37;101180.59;5118573;27;45936;-84
2023/07/09 07:59:46;;;;;;;;;6.50;6.50;;;;;25.68;55.27;101216.84;5120109;27;45409;-82
2023/07/09 08:02:14;;;;;;;;;12.00;8.75;;;;;25.55;55.89;101215.47;5120989;27;45275;-83
2023/07/09 08:04:40;;;;;;;;;7.75;5.00;;;;;25.39;56.25;101203.69;5120816;27;47316;-81
2023/07/09 08:07:07;;;;;;;;;9.25;8.50;;;;;25.35;56.33;101215.94;5120323;27;45287;-82
2023/07/09 08:09:33;;;;;;;;;10.25;9.00;;;;;25.30;56.31;101211.00;5120815;27;45294;-86
2023/07/09 08:11:59;;;;;;;;;9.00;9.00;;;;;25.25;56.56;101197.00;5122501;27;45278;-81
2023/07/09 08:14:24;;;;;;;;;10.50;10.00;;;;;25.15;56.79;101164.53;5125917;27;45391;-84
2023/07/09 08:16:49;;;;;;;;;2.00;2.00;;;;;25.05;56.66;101150.19;5131290;27;45309;-82
2023/07/09 08:19:18;;;;;;;;;10.50;8.75;;;;;25.05;56.57;101152.94;5126022;27;45427;-88
2023/07/09 08:21:43;;;;;;;;;12.50;9.50;;;;;25.03;56.57;101168.56;5121325;27;45414;-88
2023/07/09 08:24:08;;;;;;;;;11.75;8.75;;;;;25.02;56.99;101183.19;5118389;27;47206;-87
2023/07/09 08:26:34;;;;;;;;;9.75;8.25;;;;;24.82;57.33;101168.97;5118183;27;45330;-84
2023/07/09 08:28:59;;;;;;;;;10.75;8.25;;;;;24.82;57.76;101190.72;5119121;27;45340;-87
2023/07/09 08:31:25;;;;;;;;;7.25;7.00;;;;;24.80;57.90;101191.91;5118198;27;45619;-89
2023/07/09 08:33:50;;;;;;;;;12.75;9.50;;;;;24.71;57.37;101148.34;5117902;27;47462;-83
2023/07/09 08:36:16;;;;;;;;;11.00;9.25;;;;;25.00;57.65;101166.13;5119343;27;45356;-83
2023/07/09 08:38:41;;;;;;;;;7.00;7.00;;;;;25.20;57.06;101167.59;5120096;27;45335;-84
2023/07/09 08:41:06;;;;;;;;;10.00;9.50;;;;;25.36;56.92;101171.34;5118820;27;45968;-86
2023/07/09 08:43:55;;;;;;;;;9.75;9.75;;;;;25.28;57.43;101139.53;5121122;27;45255;-83
2023/07/09 08:46:31;;;;;;;;;8.75;8.75;;;;;25.60;56.63;101209.50;5119705;27;45319;-82
2023/07/09 08:49:00;;;;;;;;;8.25;6.50;;;;;25.57;56.89;101179.88;5119641;27;45414;-83
2023/07/09 08:51:35;;;;;;;;;10.00;10.00;;;;;25.86;56.93;101201.22;5119486;27;45576;-88
2023/07/09 08:54:01;;;;;;;;;10.50;8.75;;;;;25.92;56.64;101203.25;5117116;27;47257;-85
2023/07/09 08:56:32;;;;;;;;;10.00;10.00;;;;;26.07;56.08;101208.88;5118606;27;45232;-84
2023/07/09 08:59:00;;;;;;;;;11.00;11.00;;;;;26.03;55.88;101210.22;5118535;27;45336;-89
2023/07/09 09:01:34;;;;;;;;;10.25;10.25;;;;;25.93;55.66;101204.97;5119381;27;45443;-90
2023/07/09 09:04:12;;;;;;;;;12.75;11.00;;;;;25.94;56.11;101208.53;5118579;27;45395;-87
2023/07/09 09:06:46;;;;;;;;;12.25;11.00;;;;;26.04;55.85;101228.28;5119429;27;45231;-87
2023/07/09 09:09:17;;;;;;;;;9.50;9.00;;;;;26.13;55.13;101240.88;5118890;27;45394;-83
2023/07/09 09:11:46;;;;;;;;;9.00;7.75;;;;;26.08;55.06;101226.94;5119075;27;45429;-82
2023/07/09 09:14:27;;;;;;;;;9.00;9.00;;;;;26.05;55.47;101221.81;5117995;27;46093;-82
2023/07/09 09:16:54;;;;;;;;;8.60;8.60;;;;;26.08;54.83;101221.47;5116984;27;45977;-85
2023/07/09 09:19:29;;;;;;;;;10.50;8.50;;;;;26.04;55.21;101211.91;5117156;27;45351;-81
2023/07/09 09:22:03;;;;;;;;;6.25;6.25;;;;;25.89;55.37;101189.97;5118393;27;45541;-82
2023/07/09 09:24:58;;;;;;;;;7.00;7.00;;;;;25.81;55.63;101204.47;5117624;27;47321;-82
2023/07/09 09:27:23;;;;;;;;;10.20;10.20;;;;;25.74;55.84;101208.88;5117806;27;45426;-83
2023/07/09 09:29:49;;;;;;;;;8.50;8.50;;;;;25.68;55.87;101203.22;5118650;27;45464;-89
2023/07/09 09:32:22;;;;;;;;;11.00;11.00;;;;;25.61;56.25;101191.28;5117147;27;45504;-85
2023/07/09 09:34:47;;;;;;;;;9.50;9.50;;;;;25.64;55.77;101191.78;5118567;27;46206;-89
2023/07/09 09:37:23;;;;;;;;;8.75;8.75;;;;;25.49;55.70;101158.94;5119231;27;45445;-87
2023/07/09 09:39:48;;;;;;;;;11.50;9.75;;;;;25.55;55.66;101193.69;5118189;27;45365;-91
2023/07/09 09:42:14;;;;;;;;;8.75;8.75;;;;;25.26;55.74;101155.16;5120271;27;45455;-85
2023/07/09 09:44:44;;;;;;;;;6.75;6.75;;;;;25.37;55.73;101182.06;5118667;27;46289;-83
2023/07/09 09:47:11;;;;;;;;;6.00;6.00;;;;;25.46;55.74;101234.69;5118198;27;45797;-82
2023/07/09 09:49:41;;;;;;;;;6.00;6.00;;;;;25.50;56.02;101250.50;5118671;27;45476;-85
2023/07/09 09:52:13;;;;;;;;;9.50;9.50;;;;;25.41;56.63;101242.50;5122559;27;45300;-85
2023/07/09 09:54:41;;;;;;;;;10.00;10.00;;;;;25.53;57.46;101238.44;5119821;27;45957;-85
2023/07/09 09:57:24;;;;;;;;;9.75;9.75;;;;;25.67;57.88;101245.97;5117159;27;45394;-83
2023/07/09 09:59:50;;;;;;;;;0.50;0.00;;;;;25.65;59.51;101250.69;5118898;27;45365;-84
2023/07/09 10:02:24;;;;;;;;;11.00;11.00;;;;;25.69;60.01;101257.56;5117344;27;45564;-83
2023/07/09 10:04:51;;;;;;;;;13.00;12.25;;;;;25.76;60.11;101250.41;5118864;27;46334;-83
2023/07/09 10:07:32;;;;;;;;;11.25;10.50;;;;;25.82;59.92;101247.03;5117681;27;46051;-82
2023/07/09 10:09:58;;;;;;;;;12.25;10.00;;;;;25.75;59.66;101221.47;5118524;27;45380;-82
2023/07/09 10:12:48;;;;;;;;;9.25;9.25;;;;;25.92;59.85;101238.69;5119816;27;45529;-81
2023/07/09 10:15:56;;;;;;;;;9.50;9.50;;;;;26.10;58.33;101249.41;5125057;27;45420;-86
2023/07/09 10:18:52;;;;;;;;;11.00;9.00;;;;;26.18;58.75;101249.41;5125607;27;45473;-84
2023/07/09 10:21:31;;;;;;;;;11.25;11.25;;;;;26.14;58.67;101205.25;5117976;27;44772;-84
2023/07/09 10:24:27;;;;;;;;;9.25;8.25;;;;;26.17;58.97;101198.63;5119120;27;45333;-83
2023/07/09 10:27:16;;;;;;;;;11.25;10.00;;;;;26.05;59.10;101164.59;5117956;27;45514;-88
2023/07/09 10:30:10;;;;;;;;;15.00;13.25;;;;;26.03;59.50;101163.88;5115634;27;45426;-84
2023/07/09 10:32:43;;;;;;;;;9.75;9.75;;;;;26.13;60.17;101181.75;5115651;27;45398;-83
2023/07/09 10:35:37;;;;;;;;;14.75;11.25;;;;;26.20;59.16;101192.84;5117392;27;45249;-83
2023/07/09 10:38:21;;;;;;;;;12.00;11.00;;;;;26.32;59.04;101191.44;5083190;27;45502;-83
2023/07/09 10:40:54;;;;;;;;;11.25;9.50;;;;;26.37;57.85;101169.13;5120700;27;45428;-87
2023/07/09 10:43:28;;;;;;;;;9.80;9.60;;;;;26.55;57.77;101188.00;5121201;27;45433;-87
2023/07/09 10:45:59;;;;;;;;;13.00;12.50;;;;;26.67;57.32;101200.22;5122888;27;45417;-90
2023/07/09 10:48:40;;;;;;;;;10.75;10.75;;;;;26.55;56.03;101179.81;5123697;27;46283;-87
2023/07/09 10:51:17;;;;;;;;;13.00;11.50;;;;;26.86;56.30;101210.75;5121273;27;45828;-85
2023/07/09 10:53:47;;;;;;;;;13.50;11.00;;;;;27.07;55.36;101236.59;5123316;27;45397;-85
2023/07/09 10:56:20;;;;;;;;;10.25;10.25;;;;;27.07;54.98;101233.88;5125736;27;45537;-90
2023/07/09 10:58:45;;;;;;;;;13.75;10.00;;;;;27.27;55.33;101235.16;5122234;27;45658;-87
2023/07/09 11:01:15;;;;;;;;;9.50;9.50;;;;;27.37;55.01;101235.78;5123360;27;45376;-88
2023/07/09 11:03:48;;;;;;;;;13.25;12.25;;;;;27.24;54.05;101189.09;5122326;27;45292;-83
2023/07/09 11:06:33;;;;;;;;;11.75;11.50;;;;;27.56;54.37;101218.91;5122753;27;45479;-90
2023/07/09 11:09:00;;;;;;;;;10.50;10.50;;;;;27.59;54.05;101190.34;5123169;27;46171;-88
2023/07/09 11:11:38;;;;;;;;;10.00;10.00;;;;;27.75;53.90;101205.84;5124373;27;45352;-88
2023/07/09 11:14:22;;;;;;;;;9.75;8.25;;;;;27.94;51.96;101210.78;5123724;27;45272;-84
2023/07/09 11:16:49;;;;;;;;;11.25;10.50;;;;;28.02;51.43;101188.84;5125781;27;45250;-82
2023/07/09 11:19:18;;;;;;;;;9.25;7.75;;;;;28.10;51.37;101182.44;5121708;27;46323;-81
2023/07/09 11:22:14;;;;;;;;;8.20;8.20;;;;;28.32;50.26;101186.19;5124579;27;45457;-82